sensor_id;sensor_type;location;lat;lon;timestamp;P1;durP1;ratioP1;P2;durP2;ratioP2
10963;SDS011;5534;48.784;9.190;2022-07-21T00:01:29;9.38;;;7.47;;
10963;SDS011;5534;48.784;9.190;2022-07-21T00:03:55;9.65;;;7.82;;
10963;SDS011;5534;48.784;9.190;2022-07-21T00:06:21;9.48;;;7.68;;
10963;SDS011;5534;48.784;9.190;2022-07-21T00:08:47;9.95;;;8.00;;
10963;SDS011;5534;48.784;9.190;2022-07-21T00:11:12;8.15;;;7.07;;
10963;SDS011;5534;48.784;9.190;2022-07-21T00:13:39;8.75;;;7.80;;
10963;SDS011;5534;48.784;9.190;2022-07-21T00:16:05;12.88;;;7.53;;
10963;SDS011;5534;48.784;9.190;2022-07-21T00:18:30;10.25;;;7.60;;
10963;SDS011;5534;48.784;9.190;2022-07-21T00:20:57;8.73;;;7.57;;
10963;SDS011;5534;48.784;9.190;2022-07-21T00:23:24;8.73;;;7.82;;
10963;SDS011;5534;48.784;9.190;2022-07-21T00:25:50;9.48;;;8.10;;
10963;SDS011;5534;48.784;9.190;2022-07-21T00:28:17;9.75;;;7.90;;
10963;SDS011;5534;48.784;9.190;2022-07-21T00:30:43;10.13;;;8.45;;
10963;SDS011;5534;48.784;9.190;2022-07-21T00:33:12;10.88;;;8.70;;
10963;SDS011;5534;48.784;9.190;2022-07-21T00:35:38;10.82;;;8.32;;
10963;SDS011;5534;48.784;9.190;2022-07-21T00:38:04;9.55;;;8.50;;
10963;SDS011;5534;48.784;9.190;2022-07-21T00:40:30;9.50;;;8.23;;
10963;SDS011;5534;48.784;9.190;2022-07-21T00:42:57;10.55;;;9.32;;
10963;SDS011;5534;48.784;9.190;2022-07-21T00:45:26;10.52;;;9.52;;
10963;SDS011;5534;48.784;9.190;2022-07-21T00:47:53;10.68;;;9.57;;
10963;SDS011;5534;48.784;9.190;2022-07-21T00:50:19;11.90;;;9.90;;
10963;SDS011;5534;48.784;9.190;2022-07-21T00:52:46;10.40;;;8.75;;
10963;SDS011;5534;48.784;9.190;2022-07-21T00:55:14;12.05;;;9.77;;
10963;SDS011;5534;48.784;9.190;2022-07-21T00:57:41;11.98;;;8.20;;
10963;SDS011;5534;48.784;9.190;2022-07-21T01:00:10;9.85;;;8.85;;
10963;SDS011;5534;48.784;9.190;2022-07-21T01:02:39;12.23;;;9.00;;
10963;SDS011;5534;48.784;9.190;2022-07-21T01:05:06;9.25;;;6.97;;
10963;SDS011;5534;48.784;9.190;2022-07-21T01:07:43;10.13;;;7.65;;
10963;SDS011;5534;48.784;9.190;2022-07-21T01:10:14;8.93;;;7.10;;
10963;SDS011;5534;48.784;9.190;2022-07-21T01:12:41;7.97;;;7.18;;
10963;SDS011;5534;48.784;9.190;2022-07-21T01:15:07;7.45;;;6.70;;
10963;SDS011;5534;48.784;9.190;2022-07-21T01:17:35;8.13;;;6.70;;
10963;SDS011;5534;48.784;9.190;2022-07-21T01:20:05;7.68;;;6.88;;
10963;SDS011;5534;48.784;9.190;2022-07-21T01:22:37;8.27;;;6.38;;
10963;SDS011;5534;48.784;9.190;2022-07-21T01:25:05;7.43;;;6.60;;
10963;SDS011;5534;48.784;9.190;2022-07-21T01:27:31;10.73;;;6.90;;
10963;SDS011;5534;48.784;9.190;2022-07-21T01:29:58;8.48;;;6.63;;
10963;SDS011;5534;48.784;9.190;2022-07-21T01:32:24;7.60;;;6.78;;
10963;SDS011;5534;48.784;9.190;2022-07-21T01:34:50;7.45;;;6.30;;
10963;SDS011;5534;48.784;9.190;2022-07-21T01:37:19;9.10;;;6.97;;
10963;SDS011;5534;48.784;9.190;2022-07-21T01:39:47;12.70;;;6.50;;
10963;SDS011;5534;48.784;9.190;2022-07-21T01:42:32;7.63;;;6.82;;
10963;SDS011;5534;48.784;9.190;2022-07-21T01:44:58;8.48;;;6.35;;
10963;SDS011;5534;48.784;9.190;2022-07-21T01:47:24;12.98;;;6.80;;
10963;SDS011;5534;48.784;9.190;2022-07-21T01:49:50;7.25;;;6.53;;
10963;SDS011;5534;48.784;9.190;2022-07-21T01:52:16;6.47;;;5.78;;
10963;SDS011;5534;48.784;9.190;2022-07-21T01:54:41;8.25;;;6.55;;
10963;SDS011;5534;48.784;9.190;2022-07-21T01:57:07;7.70;;;6.57;;
10963;SDS011;5534;48.784;9.190;2022-07-21T01:59:33;8.57;;;7.10;;
10963;SDS011;5534;48.784;9.190;2022-07-21T02:01:59;10.30;;;6.85;;
10963;SDS011;5534;48.784;9.190;2022-07-21T02:04:25;7.20;;;6.45;;
10963;SDS011;5534;48.784;9.190;2022-07-21T02:06:50;7.45;;;6.43;;
10963;SDS011;5534;48.784;9.190;2022-07-21T02:09:16;6.07;;;5.40;;
10963;SDS011;5534;48.784;9.190;2022-07-21T02:11:42;7.68;;;6.10;;
10963;SDS011;5534;48.784;9.190;2022-07-21T02:14:08;7.80;;;5.82;;
10963;SDS011;5534;48.784;9.190;2022-07-21T02:16:33;10.15;;;6.47;;
10963;SDS011;5534;48.784;9.190;2022-07-21T02:18:59;7.35;;;6.32;;
10963;SDS011;5534;48.784;9.190;2022-07-21T02:21:25;6.53;;;5.82;;
10963;SDS011;5534;48.784;9.190;2022-07-21T02:23:51;8.43;;;6.43;;
10963;SDS011;5534;48.784;9.190;2022-07-21T02:26:17;7.25;;;6.32;;
10963;SDS011;5534;48.784;9.190;2022-07-21T02:28:43;8.15;;;6.28;;
10963;SDS011;5534;48.784;9.190;2022-07-21T02:31:09;7.45;;;6.15;;
10963;SDS011;5534;48.784;9.190;2022-07-21T02:33:35;9.20;;;6.75;;
10963;SDS011;5534;48.784;9.190;2022-07-21T02:36:01;8.60;;;6.38;;
10963;SDS011;5534;48.784;9.190;2022-07-21T02:38:26;7.03;;;6.32;;
10963;SDS011;5534;48.784;9.190;2022-07-21T02:40:52;6.70;;;5.63;;
10963;SDS011;5534;48.784;9.190;2022-07-21T02:43:18;6.55;;;5.85;;
10963;SDS011;5534;48.784;9.190;2022-07-21T02:45:44;9.80;;;5.88;;
10963;SDS011;5534;48.784;9.190;2022-07-21T02:48:10;6.95;;;5.70;;
10963;SDS011;5534;48.784;9.190;2022-07-21T02:50:38;5.50;;;4.97;;
10963;SDS011;5534;48.784;9.190;2022-07-21T02:53:12;7.88;;;5.15;;
10963;SDS011;5534;48.784;9.190;2022-07-21T02:55:48;6.32;;;5.25;;
10963;SDS011;5534;48.784;9.190;2022-07-21T03:00:51;6.47;;;5.80;;
10963;SDS011;5534;48.784;9.190;2022-07-21T03:03:21;6.68;;;5.07;;
10963;SDS011;5534;48.784;9.190;2022-07-21T03:05:48;6.55;;;5.45;;
10963;SDS011;5534;48.784;9.190;2022-07-21T03:08:15;7.15;;;5.45;;
10963;SDS011;5534;48.784;9.190;2022-07-21T03:10:42;6.95;;;6.25;;
10963;SDS011;5534;48.784;9.190;2022-07-21T03:13:08;8.13;;;6.10;;
10963;SDS011;5534;48.784;9.190;2022-07-21T03:15:34;10.50;;;6.40;;
10963;SDS011;5534;48.784;9.190;2022-07-21T03:18:01;8.82;;;6.32;;
10963;SDS011;5534;48.784;9.190;2022-07-21T03:20:28;6.63;;;5.50;;
10963;SDS011;5534;48.784;9.190;2022-07-21T03:22:56;7.15;;;5.35;;
10963;SDS011;5534;48.784;9.190;2022-07-21T03:25:22;7.93;;;5.65;;
10963;SDS011;5534;48.784;9.190;2022-07-21T03:27:48;6.50;;;5.38;;
10963;SDS011;5534;48.784;9.190;2022-07-21T03:30:14;6.20;;;5.38;;
10963;SDS011;5534;48.784;9.190;2022-07-21T03:32:41;6.45;;;5.53;;
10963;SDS011;5534;48.784;9.190;2022-07-21T03:35:08;5.90;;;4.80;;
10963;SDS011;5534;48.784;9.190;2022-07-21T03:37:42;5.57;;;4.97;;
10963;SDS011;5534;48.784;9.190;2022-07-21T03:40:13;6.72;;;5.25;;
10963;SDS011;5534;48.784;9.190;2022-07-21T03:42:40;5.80;;;4.78;;
10963;SDS011;5534;48.784;9.190;2022-07-21T03:45:07;7.10;;;4.68;;
10963;SDS011;5534;48.784;9.190;2022-07-21T03:47:34;6.80;;;5.55;;
10963;SDS011;5534;48.784;9.190;2022-07-21T03:50:00;5.65;;;4.88;;
10963;SDS011;5534;48.784;9.190;2022-07-21T03:52:26;5.25;;;4.70;;
10963;SDS011;5534;48.784;9.190;2022-07-21T03:54:52;6.20;;;4.40;;
10963;SDS011;5534;48.784;9.190;2022-07-21T03:57:40;5.50;;;5.00;;
10963;SDS011;5534;48.784;9.190;2022-07-21T04:00:33;7.97;;;5.80;;
10963;SDS011;5534;48.784;9.190;2022-07-21T04:03:04;5.63;;;4.50;;
10963;SDS011;5534;48.784;9.190;2022-07-21T04:05:30;5.40;;;4.90;;
10963;SDS011;5534;48.784;9.190;2022-07-21T04:07:56;5.38;;;4.88;;
10963;SDS011;5534;48.784;9.190;2022-07-21T04:10:23;5.65;;;5.15;;
10963;SDS011;5534;48.784;9.190;2022-07-21T04:12:51;6.32;;;5.20;;
10963;SDS011;5534;48.784;9.190;2022-07-21T04:15:18;7.07;;;5.57;;
10963;SDS011;5534;48.784;9.190;2022-07-21T04:17:44;6.38;;;5.78;;
10963;SDS011;5534;48.784;9.190;2022-07-21T04:20:11;7.28;;;6.00;;
10963;SDS011;5534;48.784;9.190;2022-07-21T04:22:38;8.43;;;5.80;;
10963;SDS011;5534;48.784;9.190;2022-07-21T04:25:04;6.60;;;5.55;;
10963;SDS011;5534;48.784;9.190;2022-07-21T04:27:30;7.63;;;5.70;;
10963;SDS011;5534;48.784;9.190;2022-07-21T04:29:57;8.40;;;6.05;;
10963;SDS011;5534;48.784;9.190;2022-07-21T04:32:23;7.65;;;5.70;;
10963;SDS011;5534;48.784;9.190;2022-07-21T04:34:49;7.68;;;5.65;;
10963;SDS011;5534;48.784;9.190;2022-07-21T04:37:14;7.82;;;5.55;;
10963;SDS011;5534;48.784;9.190;2022-07-21T04:39:40;6.38;;;5.38;;
10963;SDS011;5534;48.784;9.190;2022-07-21T04:42:06;6.15;;;5.30;;
10963;SDS011;5534;48.784;9.190;2022-07-21T04:44:32;6.55;;;5.15;;
10963;SDS011;5534;48.784;9.190;2022-07-21T04:46:58;7.53;;;5.88;;
10963;SDS011;5534;48.784;9.190;2022-07-21T04:49:24;6.07;;;5.07;;
10963;SDS011;5534;48.784;9.190;2022-07-21T04:51:49;7.18;;;5.68;;
10963;SDS011;5534;48.784;9.190;2022-07-21T04:54:15;6.45;;;4.95;;
10963;SDS011;5534;48.784;9.190;2022-07-21T04:56:41;6.68;;;5.28;;
10963;SDS011;5534;48.784;9.190;2022-07-21T04:59:07;6.78;;;5.57;;
10963;SDS011;5534;48.784;9.190;2022-07-21T05:01:34;6.28;;;5.50;;
10963;SDS011;5534;48.784;9.190;2022-07-21T05:04:00;7.43;;;5.75;;
10963;SDS011;5534;48.784;9.190;2022-07-21T05:06:26;7.07;;;5.15;;
10963;SDS011;5534;48.784;9.190;2022-07-21T05:08:52;6.57;;;5.65;;
10963;SDS011;5534;48.784;9.190;2022-07-21T05:11:18;7.88;;;5.38;;
10963;SDS011;5534;48.784;9.190;2022-07-21T05:13:44;5.97;;;5.10;;
10963;SDS011;5534;48.784;9.190;2022-07-21T05:16:10;6.07;;;5.30;;
10963;SDS011;5534;48.784;9.190;2022-07-21T05:18:35;6.63;;;5.03;;
10963;SDS011;5534;48.784;9.190;2022-07-21T05:21:01;6.97;;;5.63;;
10963;SDS011;5534;48.784;9.190;2022-07-21T05:23:27;6.72;;;5.38;;
10963;SDS011;5534;48.784;9.190;2022-07-21T05:25:53;6.10;;;5.45;;
10963;SDS011;5534;48.784;9.190;2022-07-21T05:28:19;6.50;;;5.57;;
10963;SDS011;5534;48.784;9.190;2022-07-21T05:30:45;6.97;;;5.50;;
10963;SDS011;5534;48.784;9.190;2022-07-21T05:33:10;7.35;;;6.20;;
10963;SDS011;5534;48.784;9.190;2022-07-21T05:35:36;7.72;;;5.28;;
10963;SDS011;5534;48.784;9.190;2022-07-21T05:38:02;7.35;;;5.35;;
10963;SDS011;5534;48.784;9.190;2022-07-21T05:40:28;6.10;;;5.50;;
10963;SDS011;5534;48.784;9.190;2022-07-21T05:42:54;30.08;;;22.50;;
10963;SDS011;5534;48.784;9.190;2022-07-21T05:45:20;12.55;;;9.55;;
10963;SDS011;5534;48.784;9.190;2022-07-21T05:47:46;6.93;;;5.43;;
10963;SDS011;5534;48.784;9.190;2022-07-21T05:50:12;6.45;;;5.82;;
10963;SDS011;5534;48.784;9.190;2022-07-21T05:52:38;6.45;;;5.78;;
10963;SDS011;5534;48.784;9.190;2022-07-21T05:55:04;5.85;;;5.25;;
10963;SDS011;5534;48.784;9.190;2022-07-21T05:57:30;5.30;;;4.80;;
10963;SDS011;5534;48.784;9.190;2022-07-21T05:59:56;5.55;;;4.95;;
10963;SDS011;5534;48.784;9.190;2022-07-21T06:02:23;6.13;;;5.40;;
10963;SDS011;5534;48.784;9.190;2022-07-21T06:04:48;7.82;;;4.93;;
10963;SDS011;5534;48.784;9.190;2022-07-21T06:07:14;7.22;;;5.55;;
10963;SDS011;5534;48.784;9.190;2022-07-21T06:09:40;7.35;;;5.68;;
10963;SDS011;5534;48.784;9.190;2022-07-21T06:12:06;5.90;;;5.32;;
10963;SDS011;5534;48.784;9.190;2022-07-21T06:14:32;10.15;;;8.23;;
10963;SDS011;5534;48.784;9.190;2022-07-21T06:16:57;7.82;;;5.85;;
10963;SDS011;5534;48.784;9.190;2022-07-21T06:19:23;6.93;;;6.22;;
10963;SDS011;5534;48.784;9.190;2022-07-21T06:21:49;6.68;;;5.97;;
10963;SDS011;5534;48.784;9.190;2022-07-21T06:24:15;7.13;;;5.70;;
10963;SDS011;5534;48.784;9.190;2022-07-21T06:26:41;9.88;;;5.45;;
10963;SDS011;5534;48.784;9.190;2022-07-21T06:29:07;7.05;;;5.22;;
10963;SDS011;5534;48.784;9.190;2022-07-21T06:31:34;5.88;;;5.35;;
10963;SDS011;5534;48.784;9.190;2022-07-21T06:33:59;7.13;;;5.25;;
10963;SDS011;5534;48.784;9.190;2022-07-21T06:36:25;6.05;;;5.38;;
10963;SDS011;5534;48.784;9.190;2022-07-21T06:38:51;7.20;;;6.30;;
10963;SDS011;5534;48.784;9.190;2022-07-21T06:41:17;10.63;;;8.15;;
10963;SDS011;5534;48.784;9.190;2022-07-21T06:43:42;6.53;;;5.38;;
10963;SDS011;5534;48.784;9.190;2022-07-21T06:46:08;6.47;;;5.70;;
10963;SDS011;5534;48.784;9.190;2022-07-21T06:48:34;6.85;;;5.43;;
10963;SDS011;5534;48.784;9.190;2022-07-21T06:51:00;8.10;;;7.30;;
10963;SDS011;5534;48.784;9.190;2022-07-21T06:53:26;9.02;;;6.90;;
10963;SDS011;5534;48.784;9.190;2022-07-21T06:55:52;7.65;;;5.32;;
10963;SDS011;5534;48.784;9.190;2022-07-21T06:58:19;5.35;;;4.85;;
10963;SDS011;5534;48.784;9.190;2022-07-21T07:00:47;6.18;;;5.38;;
10963;SDS011;5534;48.784;9.190;2022-07-21T07:03:14;5.88;;;4.60;;
10963;SDS011;5534;48.784;9.190;2022-07-21T07:05:43;5.55;;;5.00;;
10963;SDS011;5534;48.784;9.190;2022-07-21T07:08:11;5.65;;;5.03;;
10963;SDS011;5534;48.784;9.190;2022-07-21T07:10:37;5.75;;;5.18;;
10963;SDS011;5534;48.784;9.190;2022-07-21T07:13:07;6.68;;;5.00;;
10963;SDS011;5534;48.784;9.190;2022-07-21T07:15:33;6.47;;;4.70;;
10963;SDS011;5534;48.784;9.190;2022-07-21T07:17:59;6.65;;;5.50;;
10963;SDS011;5534;48.784;9.190;2022-07-21T07:20:25;8.95;;;5.30;;
10963;SDS011;5534;48.784;9.190;2022-07-21T07:22:50;5.85;;;4.75;;
10963;SDS011;5534;48.784;9.190;2022-07-21T07:25:16;6.33;;;4.63;;
10963;SDS011;5534;48.784;9.190;2022-07-21T07:27:44;6.07;;;5.32;;
10963;SDS011;5534;48.784;9.190;2022-07-21T07:30:11;5.18;;;4.68;;
10963;SDS011;5534;48.784;9.190;2022-07-21T07:32:37;7.78;;;4.57;;
10963;SDS011;5534;48.784;9.190;2022-07-21T07:35:03;5.93;;;4.75;;
10963;SDS011;5534;48.784;9.190;2022-07-21T07:37:29;5.90;;;5.30;;
10963;SDS011;5534;48.784;9.190;2022-07-21T07:39:55;7.22;;;4.95;;
10963;SDS011;5534;48.784;9.190;2022-07-21T07:42:21;5.57;;;4.70;;
10963;SDS011;5534;48.784;9.190;2022-07-21T07:44:47;7.53;;;5.80;;
10963;SDS011;5534;48.784;9.190;2022-07-21T07:47:14;7.35;;;5.03;;
10963;SDS011;5534;48.784;9.190;2022-07-21T07:49:40;6.10;;;5.10;;
10963;SDS011;5534;48.784;9.190;2022-07-21T07:52:06;6.15;;;4.97;;
10963;SDS011;5534;48.784;9.190;2022-07-21T07:54:31;6.50;;;4.78;;
10963;SDS011;5534;48.784;9.190;2022-07-21T07:56:57;6.05;;;4.35;;
10963;SDS011;5534;48.784;9.190;2022-07-21T07:59:23;7.63;;;5.30;;
10963;SDS011;5534;48.784;9.190;2022-07-21T08:01:49;4.47;;;4.07;;
10963;SDS011;5534;48.784;9.190;2022-07-21T08:04:15;4.45;;;3.97;;
10963;SDS011;5534;48.784;9.190;2022-07-21T08:06:41;5.18;;;4.15;;
10963;SDS011;5534;48.784;9.190;2022-07-21T08:09:07;4.82;;;4.10;;
10963;SDS011;5534;48.784;9.190;2022-07-21T08:11:34;6.43;;;4.43;;
10963;SDS011;5534;48.784;9.190;2022-07-21T08:14:00;4.10;;;3.55;;
10963;SDS011;5534;48.784;9.190;2022-07-21T08:16:25;5.18;;;3.75;;
10963;SDS011;5534;48.784;9.190;2022-07-21T08:18:51;4.45;;;4.00;;
10963;SDS011;5534;48.784;9.190;2022-07-21T08:21:17;4.32;;;3.90;;
10963;SDS011;5534;48.784;9.190;2022-07-21T08:23:43;5.32;;;4.78;;
10963;SDS011;5534;48.784;9.190;2022-07-21T08:26:08;4.18;;;3.67;;
10963;SDS011;5534;48.784;9.190;2022-07-21T08:28:34;6.15;;;4.13;;
10963;SDS011;5534;48.784;9.190;2022-07-21T08:31:00;4.05;;;3.58;;
10963;SDS011;5534;48.784;9.190;2022-07-21T08:33:26;4.88;;;3.60;;
10963;SDS011;5534;48.784;9.190;2022-07-21T08:35:52;4.90;;;4.10;;
10963;SDS011;5534;48.784;9.190;2022-07-21T08:38:19;4.65;;;3.63;;
10963;SDS011;5534;48.784;9.190;2022-07-21T08:40:45;8.73;;;7.00;;
10963;SDS011;5534;48.784;9.190;2022-07-21T08:43:12;5.05;;;4.45;;
10963;SDS011;5534;48.784;9.190;2022-07-21T08:45:41;5.53;;;5.03;;
10963;SDS011;5534;48.784;9.190;2022-07-21T08:48:08;4.72;;;4.10;;
10963;SDS011;5534;48.784;9.190;2022-07-21T08:50:35;5.97;;;5.28;;
10963;SDS011;5534;48.784;9.190;2022-07-21T08:53:02;6.97;;;5.55;;
10963;SDS011;5534;48.784;9.190;2022-07-21T08:55:30;7.05;;;5.07;;
10963;SDS011;5534;48.784;9.190;2022-07-21T08:57:57;5.13;;;3.85;;
10963;SDS011;5534;48.784;9.190;2022-07-21T09:00:24;6.22;;;4.00;;
10963;SDS011;5534;48.784;9.190;2022-07-21T09:02:50;5.03;;;4.53;;
10963;SDS011;5534;48.784;9.190;2022-07-21T09:08:45;4.97;;;3.75;;
10963;SDS011;5534;48.784;9.190;2022-07-21T09:11:13;6.03;;;3.97;;
10963;SDS011;5534;48.784;9.190;2022-07-21T09:13:50;5.68;;;4.28;;
10963;SDS011;5534;48.784;9.190;2022-07-21T09:16:39;5.78;;;4.00;;
10963;SDS011;5534;48.784;9.190;2022-07-21T09:19:16;3.80;;;3.40;;
10963;SDS011;5534;48.784;9.190;2022-07-21T09:21:42;3.70;;;3.20;;
10963;SDS011;5534;48.784;9.190;2022-07-21T09:24:12;3.85;;;3.25;;
10963;SDS011;5534;48.784;9.190;2022-07-21T09:29:39;3.95;;;3.38;;
10963;SDS011;5534;48.784;9.190;2022-07-21T09:34:53;7.18;;;5.13;;
10963;SDS011;5534;48.784;9.190;2022-07-21T09:37:23;3.45;;;2.92;;
10963;SDS011;5534;48.784;9.190;2022-07-21T09:42:27;3.50;;;3.20;;
10963;SDS011;5534;48.784;9.190;2022-07-21T09:44:55;3.58;;;3.10;;
10963;SDS011;5534;48.784;9.190;2022-07-21T09:47:22;5.10;;;3.75;;
10963;SDS011;5534;48.784;9.190;2022-07-21T09:49:50;3.97;;;2.83;;
10963;SDS011;5534;48.784;9.190;2022-07-21T09:52:18;4.53;;;3.47;;
10963;SDS011;5534;48.784;9.190;2022-07-21T09:54:47;4.88;;;4.18;;
10963;SDS011;5534;48.784;9.190;2022-07-21T09:57:15;6.03;;;3.53;;
10963;SDS011;5534;48.784;9.190;2022-07-21T09:59:45;6.97;;;4.65;;
10963;SDS011;5534;48.784;9.190;2022-07-21T10:02:30;5.30;;;4.80;;
10963;SDS011;5534;48.784;9.190;2022-07-21T10:04:58;4.47;;;4.05;;
10963;SDS011;5534;48.784;9.190;2022-07-21T10:07:27;5.38;;;3.95;;
10963;SDS011;5534;48.784;9.190;2022-07-21T10:09:53;3.75;;;3.42;;
10963;SDS011;5534;48.784;9.190;2022-07-21T10:12:20;7.60;;;4.78;;
10963;SDS011;5534;48.784;9.190;2022-07-21T10:14:47;5.90;;;3.25;;
10963;SDS011;5534;48.784;9.190;2022-07-21T10:17:13;5.28;;;4.20;;
10963;SDS011;5534;48.784;9.190;2022-07-21T10:24:45;4.65;;;3.53;;
10963;SDS011;5534;48.784;9.190;2022-07-21T10:27:12;4.28;;;3.28;;
10963;SDS011;5534;48.784;9.190;2022-07-21T10:29:48;4.53;;;3.17;;
10963;SDS011;5534;48.784;9.190;2022-07-21T10:32:48;5.10;;;3.15;;
10963;SDS011;5534;48.784;9.190;2022-07-21T10:35:29;4.07;;;3.17;;
10963;SDS011;5534;48.784;9.190;2022-07-21T10:37:56;3.70;;;3.10;;
10963;SDS011;5534;48.784;9.190;2022-07-21T10:45:34;4.97;;;2.75;;
10963;SDS011;5534;48.784;9.190;2022-07-21T10:48:01;3.80;;;2.70;;
10963;SDS011;5534;48.784;9.190;2022-07-21T10:50:32;3.25;;;2.35;;
10963;SDS011;5534;48.784;9.190;2022-07-21T10:53:12;2.28;;;2.00;;
10963;SDS011;5534;48.784;9.190;2022-07-21T10:55:49;3.15;;;2.47;;
10963;SDS011;5534;48.784;9.190;2022-07-21T11:00:55;2.97;;;2.60;;
10963;SDS011;5534;48.784;9.190;2022-07-21T11:03:37;3.63;;;3.00;;
10963;SDS011;5534;48.784;9.190;2022-07-21T11:11:07;2.55;;;2.00;;
10963;SDS011;5534;48.784;9.190;2022-07-21T11:22:14;4.35;;;2.88;;
10963;SDS011;5534;48.784;9.190;2022-07-21T11:27:21;3.00;;;2.70;;
10963;SDS011;5534;48.784;9.190;2022-07-21T11:29:49;8.63;;;7.65;;
10963;SDS011;5534;48.784;9.190;2022-07-21T11:32:19;5.03;;;2.33;;
10963;SDS011;5534;48.784;9.190;2022-07-21T11:37:28;2.78;;;2.45;;
10963;SDS011;5534;48.784;9.190;2022-07-21T11:39:59;2.90;;;2.50;;
10963;SDS011;5534;48.784;9.190;2022-07-21T11:42:26;3.67;;;2.72;;
10963;SDS011;5534;48.784;9.190;2022-07-21T11:44:52;3.22;;;2.75;;
10963;SDS011;5534;48.784;9.190;2022-07-21T11:47:18;3.13;;;2.50;;
10963;SDS011;5534;48.784;9.190;2022-07-21T11:49:53;2.70;;;2.50;;
10963;SDS011;5534;48.784;9.190;2022-07-21T11:52:24;3.03;;;2.33;;
10963;SDS011;5534;48.784;9.190;2022-07-21T11:54:52;4.13;;;2.60;;
10963;SDS011;5534;48.784;9.190;2022-07-21T11:57:20;2.95;;;2.65;;
10963;SDS011;5534;48.784;9.190;2022-07-21T11:59:47;2.97;;;2.50;;
10963;SDS011;5534;48.784;9.190;2022-07-21T12:02:15;4.60;;;3.13;;
10963;SDS011;5534;48.784;9.190;2022-07-21T12:07:45;4.15;;;2.90;;
10963;SDS011;5534;48.784;9.190;2022-07-21T12:12:48;3.30;;;3.00;;
10963;SDS011;5534;48.784;9.190;2022-07-21T12:20:12;4.18;;;2.70;;
10963;SDS011;5534;48.784;9.190;2022-07-21T12:22:40;3.08;;;2.50;;
10963;SDS011;5534;48.784;9.190;2022-07-21T12:25:09;3.33;;;2.80;;
10963;SDS011;5534;48.784;9.190;2022-07-21T12:27:38;3.33;;;3.03;;
10963;SDS011;5534;48.784;9.190;2022-07-21T12:30:06;3.67;;;3.22;;
10963;SDS011;5534;48.784;9.190;2022-07-21T12:35:25;3.45;;;3.15;;
10963;SDS011;5534;48.784;9.190;2022-07-21T12:40:24;5.43;;;3.17;;
10963;SDS011;5534;48.784;9.190;2022-07-21T12:42:51;6.18;;;3.05;;
10963;SDS011;5534;48.784;9.190;2022-07-21T12:45:28;3.53;;;2.85;;
10963;SDS011;5534;48.784;9.190;2022-07-21T12:48:07;3.15;;;2.78;;
10963;SDS011;5534;48.784;9.190;2022-07-21T12:50:34;3.83;;;3.00;;
10963;SDS011;5534;48.784;9.190;2022-07-21T12:53:00;4.43;;;3.70;;
10963;SDS011;5534;48.784;9.190;2022-07-21T12:55:26;4.95;;;3.70;;
10963;SDS011;5534;48.784;9.190;2022-07-21T12:57:52;3.53;;;3.20;;
10963;SDS011;5534;48.784;9.190;2022-07-21T13:00:17;5.50;;;3.25;;
10963;SDS011;5534;48.784;9.190;2022-07-21T13:02:47;6.57;;;3.63;;
10963;SDS011;5534;48.784;9.190;2022-07-21T13:05:16;4.00;;;3.60;;
10963;SDS011;5534;48.784;9.190;2022-07-21T13:07:42;4.90;;;3.88;;
10963;SDS011;5534;48.784;9.190;2022-07-21T13:10:08;5.25;;;3.45;;
10963;SDS011;5534;48.784;9.190;2022-07-21T13:12:34;3.90;;;3.40;;
10963;SDS011;5534;48.784;9.190;2022-07-21T13:15:00;4.22;;;3.55;;
10963;SDS011;5534;48.784;9.190;2022-07-21T13:17:26;4.45;;;3.63;;
10963;SDS011;5534;48.784;9.190;2022-07-21T13:19:51;4.97;;;3.22;;
10963;SDS011;5534;48.784;9.190;2022-07-21T13:22:17;5.28;;;3.63;;
10963;SDS011;5534;48.784;9.190;2022-07-21T13:24:43;4.70;;;3.45;;
10963;SDS011;5534;48.784;9.190;2022-07-21T13:27:09;5.15;;;3.72;;
10963;SDS011;5534;48.784;9.190;2022-07-21T13:29:34;4.00;;;3.60;;
10963;SDS011;5534;48.784;9.190;2022-07-21T13:32:02;4.65;;;3.78;;
10963;SDS011;5534;48.784;9.190;2022-07-21T13:34:28;5.05;;;3.40;;
10963;SDS011;5534;48.784;9.190;2022-07-21T13:36:53;4.30;;;3.78;;
10963;SDS011;5534;48.784;9.190;2022-07-21T13:39:19;4.15;;;3.45;;
10963;SDS011;5534;48.784;9.190;2022-07-21T13:41:47;4.57;;;3.58;;
10963;SDS011;5534;48.784;9.190;2022-07-21T13:44:13;3.80;;;3.50;;
10963;SDS011;5534;48.784;9.190;2022-07-21T13:46:39;4.32;;;3.55;;
10963;SDS011;5534;48.784;9.190;2022-07-21T13:49:04;4.35;;;2.92;;
10963;SDS011;5534;48.784;9.190;2022-07-21T13:51:30;4.30;;;3.90;;
10963;SDS011;5534;48.784;9.190;2022-07-21T13:53:56;3.88;;;3.50;;
10963;SDS011;5534;48.784;9.190;2022-07-21T13:56:22;3.72;;;3.42;;
10963;SDS011;5534;48.784;9.190;2022-07-21T13:58:48;7.05;;;3.95;;
10963;SDS011;5534;48.784;9.190;2022-07-21T14:01:14;4.82;;;3.42;;
10963;SDS011;5534;48.784;9.190;2022-07-21T14:03:40;4.97;;;4.20;;
10963;SDS011;5534;48.784;9.190;2022-07-21T14:06:07;3.65;;;3.17;;
10963;SDS011;5534;48.784;9.190;2022-07-21T14:08:33;3.40;;;2.85;;
10963;SDS011;5534;48.784;9.190;2022-07-21T14:10:59;5.28;;;3.40;;
10963;SDS011;5534;48.784;9.190;2022-07-21T14:13:25;4.13;;;3.08;;
10963;SDS011;5534;48.784;9.190;2022-07-21T14:15:51;3.78;;;3.08;;
10963;SDS011;5534;48.784;9.190;2022-07-21T14:18:17;4.90;;;3.00;;
10963;SDS011;5534;48.784;9.190;2022-07-21T14:20:42;3.83;;;3.30;;
10963;SDS011;5534;48.784;9.190;2022-07-21T14:23:08;3.42;;;3.00;;
10963;SDS011;5534;48.784;9.190;2022-07-21T14:25:34;3.47;;;3.17;;
10963;SDS011;5534;48.784;9.190;2022-07-21T14:28:00;3.92;;;3.28;;
10963;SDS011;5534;48.784;9.190;2022-07-21T14:30:26;4.25;;;3.50;;
10963;SDS011;5534;48.784;9.190;2022-07-21T14:32:54;4.05;;;3.42;;
10963;SDS011;5534;48.784;9.190;2022-07-21T14:35:21;4.60;;;3.47;;
10963;SDS011;5534;48.784;9.190;2022-07-21T14:37:47;3.22;;;2.92;;
10963;SDS011;5534;48.784;9.190;2022-07-21T14:40:14;5.57;;;3.53;;
10963;SDS011;5534;48.784;9.190;2022-07-21T14:42:42;3.85;;;2.95;;
10963;SDS011;5534;48.784;9.190;2022-07-21T14:45:08;3.60;;;3.10;;
10963;SDS011;5534;48.784;9.190;2022-07-21T14:47:34;4.78;;;3.20;;
10963;SDS011;5534;48.784;9.190;2022-07-21T14:50:00;3.08;;;2.78;;
10963;SDS011;5534;48.784;9.190;2022-07-21T14:52:26;3.67;;;3.00;;
10963;SDS011;5534;48.784;9.190;2022-07-21T14:54:52;3.00;;;2.70;;
10963;SDS011;5534;48.784;9.190;2022-07-21T14:57:18;5.13;;;3.20;;
10963;SDS011;5534;48.784;9.190;2022-07-21T14:59:43;4.00;;;3.42;;
10963;SDS011;5534;48.784;9.190;2022-07-21T15:02:09;3.95;;;3.55;;
10963;SDS011;5534;48.784;9.190;2022-07-21T15:04:35;4.00;;;3.38;;
10963;SDS011;5534;48.784;9.190;2022-07-21T15:07:01;3.22;;;2.92;;
10963;SDS011;5534;48.784;9.190;2022-07-21T15:09:27;3.22;;;2.85;;
10963;SDS011;5534;48.784;9.190;2022-07-21T15:11:53;4.10;;;3.33;;
10963;SDS011;5534;48.784;9.190;2022-07-21T15:14:18;3.85;;;3.03;;
10963;SDS011;5534;48.784;9.190;2022-07-21T15:16:44;3.45;;;2.50;;
10963;SDS011;5534;48.784;9.190;2022-07-21T15:19:10;3.67;;;2.53;;
10963;SDS011;5534;48.784;9.190;2022-07-21T15:21:36;3.17;;;2.70;;
10963;SDS011;5534;48.784;9.190;2022-07-21T15:24:02;3.75;;;2.65;;
10963;SDS011;5534;48.784;9.190;2022-07-21T15:26:28;3.10;;;2.63;;
10963;SDS011;5534;48.784;9.190;2022-07-21T15:28:54;3.42;;;2.55;;
10963;SDS011;5534;48.784;9.190;2022-07-21T15:31:20;2.70;;;2.50;;
10963;SDS011;5534;48.784;9.190;2022-07-21T15:33:46;4.05;;;2.40;;
10963;SDS011;5534;48.784;9.190;2022-07-21T15:36:11;4.78;;;2.58;;
10963;SDS011;5534;48.784;9.190;2022-07-21T15:38:37;2.60;;;2.40;;
10963;SDS011;5534;48.784;9.190;2022-07-21T15:41:03;4.15;;;2.40;;
10963;SDS011;5534;48.784;9.190;2022-07-21T15:43:29;3.35;;;2.80;;
10963;SDS011;5534;48.784;9.190;2022-07-21T15:45:55;2.80;;;2.50;;
10963;SDS011;5534;48.784;9.190;2022-07-21T15:48:21;2.58;;;2.35;;
10963;SDS011;5534;48.784;9.190;2022-07-21T15:50:47;3.08;;;2.72;;
10963;SDS011;5534;48.784;9.190;2022-07-21T15:53:13;3.63;;;2.30;;
10963;SDS011;5534;48.784;9.190;2022-07-21T15:55:38;3.25;;;2.40;;
10963;SDS011;5534;48.784;9.190;2022-07-21T15:58:04;3.67;;;2.42;;
10963;SDS011;5534;48.784;9.190;2022-07-21T16:00:30;3.13;;;2.35;;
10963;SDS011;5534;48.784;9.190;2022-07-21T16:02:56;3.60;;;2.55;;